Time;durP1;ratioP1;P1;durP2;ratioP2;P2;SDS_P1;SDS_P2;PMS_P1;PMS_P2;Temp;Humidity;BMP_temperature;BMP_pressure;BME280_temperature;BME280_humidity;BME280_pressure;Samples;Min_cycle;Max_cycle;Signal;HPM_P1;HPM_P2
2023/03/24 00:00:42;;;;;;;2.40;1.60;;;13.10;93.70;;;;;;5006850;28;21217;-70
2023/03/24 00:03:10;;;;;;;1.53;1.30;;;12.90;92.10;;;;;;5007045;28;21094;-70
2023/03/24 00:05:39;;;;;;;1.50;1.40;;;12.80;92.30;;;;;;4987723;28;20684;-69
2023/03/24 00:08:07;;;;;;;2.00;1.37;;;12.80;91.80;;;;;;5003312;28;21193;-71
2023/03/24 00:10:35;;;;;;;1.90;1.57;;;12.80;92.10;;;;;;5006645;28;20710;-70
2023/03/24 00:13:04;;;;;;;1.23;1.17;;;12.70;92.10;;;;;;5007022;28;20728;-69
2023/03/24 00:15:32;;;;;;;1.00;0.77;;;12.70;91.70;;;;;;5006700;28;20702;-69
2023/03/24 00:17:59;;;;;;;1.30;0.93;;;12.70;92.20;;;;;;5007204;28;20623;-70
2023/03/24 00:20:28;;;;;;;1.37;1.27;;;12.70;91.60;;;;;;5006154;28;20688;-70
2023/03/24 00:22:57;;;;;;;1.30;1.20;;;12.70;91.60;;;;;;5006800;28;20771;-70
2023/03/24 00:25:27;;;;;;;1.70;1.60;;;12.70;91.60;;;;;;5007735;28;20730;-70
2023/03/24 00:27:56;;;;;;;3.03;1.10;;;12.60;91.30;;;;;;5010266;28;20659;-70
2023/03/24 00:30:24;;;;;;;1.53;1.40;;;12.70;91.20;;;;;;5009273;28;20668;-70
2023/03/24 00:32:51;;;;;;;2.30;2.10;;;12.70;91.20;;;;;;5010456;28;20646;-69
2023/03/24 00:35:19;;;;;;;1.53;1.43;;;12.70;91.40;;;;;;5010621;28;20624;-70
2023/03/24 00:37:48;;;;;;;3.83;1.20;;;12.70;91.00;;;;;;5010621;28;21219;-69
2023/03/24 00:40:17;;;;;;;0.83;0.80;;;12.80;91.10;;;;;;5008779;28;20667;-70
2023/03/24 00:42:46;;;;;;;1.30;1.23;;;12.70;90.80;;;;;;5011084;28;20710;-69
2023/03/24 00:45:17;;;;;;;1.73;1.20;;;12.70;90.70;;;;;;5009986;28;21204;-69
2023/03/24 00:47:44;;;;;;;1.07;0.93;;;12.70;90.40;;;;;;5010492;28;20628;-69
2023/03/24 00:50:15;;;;;;;1.03;1.03;;;12.80;90.40;;;;;;5008918;28;20628;-69
2023/03/24 00:52:46;;;;;;;1.67;0.90;;;12.70;90.00;;;;;;5008988;28;20667;-71
2023/03/24 00:55:16;;;;;;;1.20;1.10;;;12.80;90.20;;;;;;5009946;28;20620;-69
2023/03/24 00:57:49;;;;;;;2.20;1.00;;;12.80;90.20;;;;;;5001547;28;20628;-70
2023/03/24 01:00:19;;;;;;;1.33;1.23;;;12.70;89.80;;;;;;5008973;28;20636;-70
2023/03/24 01:02:47;;;;;;;1.70;1.60;;;12.70;90.10;;;;;;5009867;28;20667;-69
2023/03/24 01:05:16;;;;;;;1.33;0.87;;;12.60;90.10;;;;;;5009683;28;21295;-69
2023/03/24 01:07:44;;;;;;;1.20;1.10;;;12.70;89.50;;;;;;5010158;28;21514;-70
2023/03/24 01:10:14;;;;;;;1.00;0.80;;;12.60;89.90;;;;;;5008584;28;20632;-70
2023/03/24 01:12:41;;;;;;;1.40;1.10;;;12.70;89.30;;;;;;5010423;28;20655;-69
2023/03/24 01:15:13;;;;;;;1.70;1.30;;;12.70;88.70;;;;;;5009673;28;20969;-70
2023/03/24 01:17:41;;;;;;;1.27;1.17;;;12.70;88.60;;;;;;5009725;28;20636;-70
2023/03/24 01:20:10;;;;;;;1.73;1.63;;;12.70;88.90;;;;;;5008785;28;20755;-70
2023/03/24 01:22:39;;;;;;;1.37;1.30;;;12.60;88.80;;;;;;5009787;28;20678;-69
2023/03/24 01:25:08;;;;;;;1.07;0.93;;;12.60;89.50;;;;;;5009504;28;20634;-70
2023/03/24 01:27:37;;;;;;;2.20;1.60;;;12.60;89.40;;;;;;5008710;28;20643;-70
2023/03/24 01:30:05;;;;;;;1.00;1.00;;;12.50;89.50;;;;;;4989907;28;20628;-70
2023/03/24 01:32:32;;;;;;;1.60;1.50;;;12.60;89.40;;;;;;5009297;28;20729;-69
2023/03/24 01:34:59;;;;;;;0.87;0.87;;;12.50;88.80;;;;;;5010029;28;20663;-69
2023/03/24 01:37:26;;;;;;;2.10;1.20;;;12.50;89.60;;;;;;5008186;28;20710;-69
2023/03/24 01:39:53;;;;;;;0.80;0.80;;;12.60;90.00;;;;;;5008275;28;20651;-69
2023/03/24 01:42:25;;;;;;;1.13;0.87;;;12.50;89.70;;;;;;5008881;28;21133;-69
2023/03/24 01:45:00;;;;;;;1.17;1.07;;;12.50;89.70;;;;;;5009033;28;20735;-70
2023/03/24 01:47:27;;;;;;;3.33;1.23;;;12.50;90.00;;;;;;5009295;28;20658;-69
2023/03/24 01:49:58;;;;;;;1.77;1.67;;;12.50;89.70;;;;;;5008408;28;20616;-69
2023/03/24 01:52:29;;;;;;;1.43;1.33;;;12.50;89.30;;;;;;5008966;28;20667;-69
2023/03/24 01:55:00;;;;;;;1.27;1.17;;;12.40;89.40;;;;;;5009468;28;20722;-69
2023/03/24 01:57:30;;;;;;;1.60;1.47;;;12.40;89.50;;;;;;5008249;28;20800;-68
2023/03/24 02:00:03;;;;;;;1.93;1.30;;;12.40;89.30;;;;;;5008230;28;20726;-69
2023/03/24 02:02:33;;;;;;;3.13;1.27;;;12.40;89.90;;;;;;5007622;28;20695;-71
2023/03/24 02:05:04;;;;;;;2.57;1.23;;;12.40;90.00;;;;;;5007666;28;20787;-69
2023/03/24 02:07:33;;;;;;;2.30;1.00;;;12.40;90.00;;;;;;4989332;28;20715;-70
2023/03/24 02:10:02;;;;;;;0.90;0.90;;;12.30;89.90;;;;;;5002319;28;20628;-69
2023/03/24 02:12:31;;;;;;;0.90;0.90;;;12.30;89.40;;;;;;5008412;28;21205;-69
2023/03/24 02:15:00;;;;;;;1.13;1.00;;;12.30;89.10;;;;;;5009293;28;20730;-69
2023/03/24 02:17:50;;;;;;;1.57;1.20;;;12.40;89.90;;;;;;5008812;28;20628;-69
2023/03/24 02:20:50;;;;;;;1.00;1.00;;;12.40;89.10;;;;;;5007245;28;20629;-69
2023/03/24 02:23:56;;;;;;;1.27;1.00;;;12.50;88.70;;;;;;5000774;28;20770;-69
2023/03/24 02:26:52;;;;;;;0.90;0.83;;;12.50;88.90;;;;;;5007969;28;21307;-69
2023/03/24 02:30:01;;;;;;;1.23;1.20;;;12.50;88.90;;;;;;5007416;28;20718;-69
2023/03/24 02:33:12;;;;;;;1.80;1.17;;;12.50;89.10;;;;;;5003400;28;20647;-69
2023/03/24 02:36:09;;;;;;;0.90;0.80;;;12.50;89.10;;;;;;5008709;28;20659;-69
2023/03/24 02:39:09;;;;;;;0.80;0.80;;;12.50;88.60;;;;;;5007783;28;20738;-69
2023/03/24 02:41:45;;;;;;;1.70;0.80;;;12.60;88.40;;;;;;5007925;28;20787;-70
2023/03/24 02:44:21;;;;;;;1.07;1.03;;;12.60;88.40;;;;;;5008779;28;20878;-69
2023/03/24 02:46:56;;;;;;;0.70;0.70;;;12.60;88.20;;;;;;5008109;28;20659;-69
2023/03/24 02:49:31;;;;;;;2.50;1.00;;;12.60;87.70;;;;;;5006538;28;20632;-70
2023/03/24 02:52:05;;;;;;;2.23;1.03;;;12.50;88.30;;;;;;5007927;28;20659;-69
2023/03/24 02:54:41;;;;;;;1.47;1.20;;;12.60;88.10;;;;;;5008403;28;20627;-69
2023/03/24 02:57:19;;;;;;;2.00;1.23;;;12.70;88.10;;;;;;5007685;28;20655;-69
2023/03/24 02:59:54;;;;;;;1.33;1.20;;;12.70;88.10;;;;;;5006618;28;20631;-70
2023/03/24 03:02:27;;;;;;;0.87;0.77;;;12.70;87.60;;;;;;5007840;28;20676;-69
2023/03/24 03:05:02;;;;;;;0.70;0.60;;;12.80;87.40;;;;;;5007693;28;20751;-69
2023/03/24 03:07:36;;;;;;;0.93;0.93;;;12.70;87.60;;;;;;5008205;28;20612;-70
2023/03/24 03:10:07;;;;;;;0.70;0.70;;;12.80;87.40;;;;;;5007015;28;20628;-71
2023/03/24 03:12:38;;;;;;;1.47;1.20;;;12.80;87.00;;;;;;5006768;28;20686;-70
2023/03/24 03:15:09;;;;;;;1.80;1.27;;;12.90;86.80;;;;;;5007836;28;21216;-69
2023/03/24 03:17:41;;;;;;;2.70;1.03;;;12.90;87.40;;;;;;5008087;28;20624;-70
2023/03/24 03:20:13;;;;;;;1.70;1.30;;;12.90;86.70;;;;;;5006472;28;20632;-70
2023/03/24 03:22:48;;;;;;;0.80;0.77;;;12.90;86.70;;;;;;4996848;28;20656;-70
2023/03/24 03:25:22;;;;;;;2.53;1.50;;;12.90;87.10;;;;;;5007768;28;20628;-69
2023/03/24 03:27:53;;;;;;;1.93;1.60;;;12.80;87.10;;;;;;5007082;28;20702;-69
2023/03/24 03:30:26;;;;;;;0.83;0.83;;;12.90;86.80;;;;;;5006370;28;20686;-69
2023/03/24 03:32:59;;;;;;;0.77;0.77;;;12.80;87.00;;;;;;4988250;28;20631;-69
2023/03/24 03:35:31;;;;;;;3.50;1.10;;;12.80;87.40;;;;;;4995255;28;20652;-69
2023/03/24 03:38:10;;;;;;;1.20;1.10;;;12.90;86.90;;;;;;5006911;28;20627;-69
2023/03/24 03:40:41;;;;;;;1.90;1.33;;;12.90;86.90;;;;;;5007259;28;21298;-70
2023/03/24 03:43:10;;;;;;;1.47;1.30;;;12.80;87.00;;;;;;5007574;28;20664;-70
2023/03/24 03:45:38;;;;;;;2.50;0.93;;;12.90;86.90;;;;;;5007130;28;20746;-70
2023/03/24 03:48:06;;;;;;;2.77;1.10;;;12.80;86.90;;;;;;5006930;28;21074;-70
2023/03/24 03:50:34;;;;;;;1.40;1.30;;;12.80;86.70;;;;;;5007144;28;20656;-69
2023/03/24 03:53:02;;;;;;;2.07;1.00;;;13.00;86.10;;;;;;5007102;28;20648;-70
2023/03/24 03:55:31;;;;;;;2.97;1.20;;;13.00;86.10;;;;;;5007295;28;20664;-69
2023/03/24 03:57:59;;;;;;;1.13;0.93;;;13.00;85.90;;;;;;5007178;28;20630;-69
2023/03/24 04:00:29;;;;;;;1.20;1.13;;;12.90;86.00;;;;;;5006735;28;20674;-70
2023/03/24 04:03:28;;;;;;;1.77;1.23;;;12.90;85.60;;;;;;5011632;28;20660;-69
2023/03/24 04:06:02;;;;;;;0.80;0.60;;;12.90;86.10;;;;;;4996909;28;20678;-69
2023/03/24 04:08:46;;;;;;;1.20;1.00;;;13.00;85.60;;;;;;5010161;28;20666;-70
2023/03/24 04:11:46;;;;;;;1.00;1.00;;;13.20;85.90;;;;;;5010990;28;20751;-70
2023/03/24 04:14:43;;;;;;;1.23;1.13;;;12.90;85.30;;;;;;5011379;28;20643;-69
2023/03/24 04:17:22;;;;;;;1.07;0.80;;;13.00;85.30;;;;;;4997730;28;21166;-69
2023/03/24 04:20:02;;;;;;;1.63;0.90;;;13.00;84.60;;;;;;5010024;28;20627;-69
2023/03/24 04:22:40;;;;;;;0.73;0.70;;;13.10;84.90;;;;;;5010739;28;20627;-70
2023/03/24 04:25:18;;;;;;;1.33;1.00;;;13.10;85.10;;;;;;5010785;28;20725;-70
2023/03/24 04:27:50;;;;;;;1.27;1.17;;;13.00;85.30;;;;;;5010456;28;20639;-69
2023/03/24 04:30:23;;;;;;;1.33;0.97;;;13.10;85.20;;;;;;5009748;28;20731;-69
2023/03/24 04:32:57;;;;;;;0.70;0.60;;;13.10;85.20;;;;;;5010556;28;20628;-70
2023/03/24 04:35:31;;;;;;;1.10;1.10;;;13.00;85.40;;;;;;5010723;28;20667;-69
2023/03/24 04:38:02;;;;;;;1.73;1.63;;;13.10;84.80;;;;;;5010054;28;20632;-70
2023/03/24 04:40:32;;;;;;;1.10;1.00;;;13.10;84.70;;;;;;5010047;28;20662;-70
2023/03/24 04:43:02;;;;;;;0.63;0.63;;;13.10;84.40;;;;;;5010374;28;20667;-69
2023/03/24 04:45:32;;;;;;;2.30;0.90;;;13.10;84.40;;;;;;5010586;28;20660;-70
2023/03/24 04:48:03;;;;;;;0.87;0.63;;;13.10;85.60;;;;;;5010681;28;20755;-70
2023/03/24 04:50:33;;;;;;;1.37;1.07;;;13.10;84.80;;;;;;5009482;28;20648;-69
2023/03/24 04:53:00;;;;;;;1.07;0.93;;;13.10;85.00;;;;;;5011044;28;20620;-69
2023/03/24 04:55:53;;;;;;;1.07;0.80;;;13.10;85.50;;;;;;5010310;28;20991;-69
2023/03/24 04:58:22;;;;;;;1.13;0.87;;;13.10;84.90;;;;;;5008529;28;20663;-69
2023/03/24 05:00:50;;;;;;;0.80;0.80;;;13.10;85.30;;;;;;5009518;28;20683;-68
2023/03/24 05:03:19;;;;;;;0.83;0.83;;;13.20;85.60;;;;;;5010543;28;20678;-69
2023/03/24 05:05:48;;;;;;;1.23;0.53;;;13.30;86.10;;;;;;5009923;28;20659;-69
2023/03/24 05:08:15;;;;;;;0.77;0.77;;;13.40;85.50;;;;;;5009625;28;20624;-70
2023/03/24 05:10:43;;;;;;;1.13;0.87;;;13.60;85.50;;;;;;5009249;28;20648;-69
2023/03/24 05:13:09;;;;;;;0.83;0.80;;;13.60;85.60;;;;;;5009907;28;20730;-70
2023/03/24 05:15:36;;;;;;;0.60;0.60;;;13.70;85.80;;;;;;5009502;28;20667;-69
2023/03/24 05:18:03;;;;;;;0.50;0.50;;;13.60;86.00;;;;;;5009727;28;20624;-69
2023/03/24 05:20:34;;;;;;;1.23;1.13;;;13.70;85.60;;;;;;5009006;28;20759;-71
2023/03/24 05:23:00;;;;;;;1.67;0.50;;;13.80;85.80;;;;;;5009663;28;21263;-69
2023/03/24 05:25:27;;;;;;;2.07;1.30;;;13.90;86.00;;;;;;5009479;28;20670;-69
2023/03/24 05:27:54;;;;;;;1.30;1.13;;;13.80;86.70;;;;;;5008756;28;20978;-69
2023/03/24 05:30:21;;;;;;;0.40;0.40;;;13.80;87.90;;;;;;5007923;28;20628;-70
2023/03/24 05:32:48;;;;;;;1.70;1.60;;;13.80;89.20;;;;;;5009613;28;20622;-69
2023/03/24 05:35:14;;;;;;;0.73;0.70;;;13.70;90.60;;;;;;5009147;28;20997;-69
2023/03/24 05:37:43;;;;;;;1.23;1.03;;;13.60;91.90;;;;;;5009523;28;20690;-69
2023/03/24 05:40:10;;;;;;;0.80;0.63;;;13.40;92.70;;;;;;5008355;28;20628;-69
2023/03/24 05:42:37;;;;;;;1.80;1.10;;;13.20;93.30;;;;;;5009089;28;20628;-69
2023/03/24 05:45:06;;;;;;;1.70;1.30;;;13.00;93.70;;;;;;5008908;28;21065;-69
2023/03/24 05:47:33;;;;;;;2.37;0.87;;;13.00;93.60;;;;;;5009934;28;20631;-70
2023/03/24 05:49:59;;;;;;;1.30;1.20;;;12.90;94.40;;;;;;5007931;28;20635;-69
2023/03/24 05:52:27;;;;;;;1.00;0.70;;;12.90;94.70;;;;;;5009221;28;20702;-69
2023/03/24 05:54:55;;;;;;;1.20;1.10;;;12.80;94.80;;;;;;5008536;28;21276;-69
2023/03/24 05:57:22;;;;;;;1.17;0.90;;;12.90;95.00;;;;;;5009523;28;21026;-69
2023/03/24 05:59:48;;;;;;;0.70;0.70;;;12.80;95.80;;;;;;5007180;28;21397;-69
2023/03/24 06:02:15;;;;;;;2.07;1.60;;;12.80;96.40;;;;;;5009112;28;20822;-69
2023/03/24 06:04:44;;;;;;;3.33;0.90;;;12.70;96.70;;;;;;5008600;28;20678;-69
2023/03/24 06:07:12;;;;;;;1.57;1.10;;;12.60;97.20;;;;;;5008689;28;21224;-69
2023/03/24 06:09:41;;;;;;;2.20;1.80;;;12.50;97.60;;;;;;5007471;28;20624;-69
2023/03/24 06:12:10;;;;;;;1.23;0.90;;;12.60;97.80;;;;;;5008316;28;20653;-69
2023/03/24 06:14:37;;;;;;;1.37;1.27;;;12.60;98.00;;;;;;5008679;28;20646;-70
2023/03/24 06:17:05;;;;;;;1.77;1.63;;;12.50;98.90;;;;;;5007063;28;20810;-69
2023/03/24 06:19:33;;;;;;;1.53;1.00;;;12.60;98.70;;;;;;5007232;28;20660;-70
2023/03/24 06:22:01;;;;;;;1.73;1.20;;;12.50;98.60;;;;;;5006619;28;20659;-69
2023/03/24 09:00:38;;;;;;;0.87;0.80;;;12.50;99.90;;;;;;5006088;28;20642;-68
2023/03/24 09:06:48;;;;;;;1.90;1.60;;;12.70;99.90;;;;;;4988737;28;20682;-67
2023/03/24 09:09:15;;;;;;;1.90;1.67;;;12.70;99.90;;;;;;4994449;28;20621;-69
2023/03/24 09:11:42;;;;;;;2.20;1.10;;;12.70;99.90;;;;;;4990182;28;20652;-68
2023/03/24 09:14:08;;;;;;;1.50;1.40;;;12.70;99.90;;;;;;4990654;28;20629;-68
2023/03/24 09:16:37;;;;;;;0.97;0.97;;;12.80;99.90;;;;;;4989688;28;20663;-69
2023/03/24 09:19:04;;;;;;;1.73;0.93;;;12.80;99.90;;;;;;4989248;28;21072;-69
2023/03/24 09:21:30;;;;;;;1.23;1.13;;;12.80;99.90;;;;;;4986962;28;20776;-69
2023/03/24 09:23:57;;;;;;;1.50;1.40;;;12.80;99.90;;;;;;4990377;28;20677;-68
2023/03/24 09:26:24;;;;;;;1.83;1.73;;;12.90;99.90;;;;;;4989183;28;20656;-68
2023/03/24 09:28:51;;;;;;;1.57;1.47;;;13.00;99.90;;;;;;4989143;28;20740;-69
2023/03/24 09:31:17;;;;;;;3.03;1.03;;;13.00;99.90;;;;;;4989500;28;20677;-69
2023/03/24 09:33:50;;;;;;;1.17;1.17;;;13.00;99.90;;;;;;4988882;28;21178;-70
2023/03/24 09:36:35;;;;;;;1.07;1.00;;;13.10;99.90;;;;;;4993763;28;20637;-69
2023/03/24 09:42:43;;;;;;;1.30;1.20;;;13.30;99.90;;;;;;4992650;28;20643;-69
2023/03/24 09:45:15;;;;;;;2.10;1.00;;;13.40;99.90;;;;;;4999134;28;20676;-70
2023/03/24 09:47:45;;;;;;;2.20;1.57;;;13.50;99.90;;;;;;4987526;28;20629;-70
2023/03/24 09:50:21;;;;;;;1.20;1.10;;;13.60;99.90;;;;;;4987609;28;20640;-70
2023/03/24 09:52:51;;;;;;;1.40;1.30;;;13.70;99.90;;;;;;4988199;28;20639;-69
2023/03/24 09:55:23;;;;;;;0.80;0.80;;;13.70;99.90;;;;;;4988279;28;20632;-70
2023/03/24 09:57:52;;;;;;;1.20;1.10;;;13.70;99.90;;;;;;4987756;28;21347;-70
2023/03/24 10:00:22;;;;;;;1.93;1.10;;;13.70;99.90;;;;;;4987796;28;20623;-70
2023/03/24 10:02:50;;;;;;;1.57;1.47;;;13.80;99.90;;;;;;4989011;28;20643;-71
2023/03/24 10:05:22;;;;;;;1.70;1.30;;;13.90;99.90;;;;;;4988429;28;20664;-70
2023/03/24 10:07:55;;;;;;;1.20;1.10;;;14.10;99.90;;;;;;4989452;28;20641;-70
2023/03/24 10:10:30;;;;;;;1.60;1.50;;;14.20;99.90;;;;;;4988353;28;20621;-70
2023/03/24 10:13:05;;;;;;;1.47;1.37;;;14.50;99.90;;;;;;4990221;28;21201;-71
2023/03/24 10:15:37;;;;;;;2.70;1.50;;;14.60;99.90;;;;;;4988348;28;20655;-70
2023/03/24 10:18:20;;;;;;;0.80;0.80;;;14.60;99.90;;;;;;4989081;28;20640;-71
2023/03/24 10:20:52;;;;;;;1.77;1.27;;;14.70;99.90;;;;;;4986296;28;21641;-70
2023/03/24 10:23:26;;;;;;;1.70;1.60;;;14.80;99.90;;;;;;4989242;28;20629;-70
2023/03/24 10:26:00;;;;;;;1.17;1.07;;;14.70;99.90;;;;;;4988314;28;21094;-70
2023/03/24 10:28:33;;;;;;;1.00;1.00;;;14.70;99.90;;;;;;4988122;28;20643;-70
2023/03/24 10:31:04;;;;;;;0.90;0.90;;;14.70;99.90;;;;;;4988063;28;20657;-70
2023/03/24 10:33:31;;;;;;;1.23;0.80;;;14.80;99.90;;;;;;4989187;28;21200;-71
2023/03/24 10:36:05;;;;;;;1.03;0.93;;;15.00;99.90;;;;;;4986871;28;20681;-70
2023/03/24 10:38:32;;;;;;;0.83;0.80;;;15.00;99.00;;;;;;4981692;28;21553;-71
2023/03/24 10:41:00;;;;;;;1.00;0.67;;;15.20;99.90;;;;;;4983080;28;21306;-70
2023/03/24 10:43:27;;;;;;;0.73;0.73;;;15.20;98.90;;;;;;4983185;28;21199;-70
2023/03/24 10:45:57;;;;;;;1.03;0.67;;;15.10;99.10;;;;;;4978988;28;21373;-72
2023/03/24 10:48:40;;;;;;;0.50;0.50;;;15.00;98.20;;;;;;4982247;28;20635;-70
2023/03/24 10:51:15;;;;;;;1.20;1.10;;;15.00;97.80;;;;;;4982442;28;20675;-70
2023/03/24 10:53:42;;;;;;;0.73;0.70;;;15.20;98.30;;;;;;4984372;28;21175;-70
2023/03/24 10:56:13;;;;;;;1.13;0.60;;;15.30;97.90;;;;;;4983593;28;20667;-70
2023/03/24 10:58:42;;;;;;;1.07;0.97;;;15.10;96.60;;;;;;4987215;28;20753;-70
2023/03/24 11:01:29;;;;;;;0.50;0.40;;;15.00;97.10;;;;;;4987028;28;20671;-71
2023/03/24 11:04:02;;;;;;;1.00;0.63;;;15.10;97.40;;;;;;4988855;28;20625;-70
2023/03/24 11:06:32;;;;;;;1.17;0.67;;;15.00;97.00;;;;;;4987353;28;20665;-70
2023/03/24 11:09:19;;;;;;;0.73;0.73;;;15.00;97.40;;;;;;4987172;28;20626;-70
2023/03/24 11:11:46;;;;;;;0.40;0.40;;;14.80;96.10;;;;;;4986413;28;21419;-70
2023/03/24 11:14:22;;;;;;;0.50;0.50;;;14.90;96.50;;;;;;4988691;28;20664;-70
2023/03/24 11:16:49;;;;;;;1.00;0.67;;;15.20;96.80;;;;;;4988132;28;21259;-70
2023/03/24 11:19:21;;;;;;;0.63;0.50;;;15.30;96.30;;;;;;4987595;28;20706;-70
2023/03/24 11:21:51;;;;;;;0.47;0.40;;;15.50;96.30;;;;;;4987663;28;20700;-70
2023/03/24 11:24:20;;;;;;;0.83;0.70;;;15.50;95.70;;;;;;4987706;28;21053;-71
2023/03/24 11:26:54;;;;;;;0.60;0.50;;;15.50;95.20;;;;;;4988065;28;20657;-70
2023/03/24 11:29:24;;;;;;;0.70;0.40;;;15.60;95.80;;;;;;4987151;28;20639;-70
2023/03/24 11:31:53;;;;;;;0.83;0.50;;;15.50;94.80;;;;;;4987757;28;20660;-70
2023/03/24 11:34:24;;;;;;;1.23;0.87;;;15.50;94.60;;;;;;4988207;28;20744;-70
2023/03/24 11:36:55;;;;;;;0.43;0.37;;;15.70;94.30;;;;;;4987681;28;20720;-71
2023/03/24 11:39:24;;;;;;;1.00;0.90;;;15.70;94.40;;;;;;4987333;28;20636;-71
2023/03/24 11:42:13;;;;;;;0.83;0.63;;;15.70;93.70;;;;;;4987427;28;20653;-70
2023/03/24 11:44:49;;;;;;;0.50;0.50;;;15.60;93.40;;;;;;4988429;28;20660;-70
2023/03/24 11:47:24;;;;;;;0.70;0.70;;;15.30;93.70;;;;;;4987315;28;20690;-70
2023/03/24 11:50:00;;;;;;;0.53;0.53;;;15.30;94.20;;;;;;4986546;28;20625;-70
2023/03/24 11:52:31;;;;;;;0.50;0.50;;;15.40;93.70;;;;;;4982702;28;21307;-70
2023/03/24 11:54:58;;;;;;;0.37;0.33;;;15.20;93.40;;;;;;4987166;28;20556;-70
2023/03/24 11:57:40;;;;;;;0.70;0.70;;;15.20;93.00;;;;;;4986361;28;21498;-71
2023/03/24 12:00:14;;;;;;;0.53;0.50;;;15.30;93.00;;;;;;4986482;28;20752;-71
2023/03/24 12:02:56;;;;;;;0.40;0.40;;;15.30;92.20;;;;;;4986327;28;20680;-71
2023/03/24 12:05:33;;;;;;;0.67;0.47;;;15.20;91.80;;;;;;4987001;28;20718;-70
2023/03/24 12:08:37;;;;;;;0.50;0.30;;;15.00;91.80;;;;;;4986257;28;20639;-70
2023/03/24 12:11:12;;;;;;;1.07;0.50;;;15.10;91.90;;;;;;4987642;28;20767;-70
2023/03/24 12:13:41;;;;;;;0.40;0.30;;;15.20;91.70;;;;;;4987610;28;20962;-70
2023/03/24 12:16:21;;;;;;;0.70;0.40;;;15.20;91.40;;;;;;4987006;28;21014;-70
2023/03/24 12:19:21;;;;;;;0.60;0.40;;;15.40;91.80;;;;;;4986381;28;20633;-70
2023/03/24 12:21:57;;;;;;;0.40;0.30;;;15.40;92.10;;;;;;4974372;28;21106;-70
2023/03/24 12:24:42;;;;;;;0.60;0.50;;;15.40;91.50;;;;;;4990247;28;21203;-69
2023/03/24 12:27:23;;;;;;;0.40;0.40;;;15.50;90.70;;;;;;4990699;28;20657;-70
2023/03/24 12:29:59;;;;;;;0.40;0.30;;;15.50;90.80;;;;;;4980311;28;20636;-70
2023/03/24 12:32:51;;;;;;;0.40;0.20;;;15.50;90.70;;;;;;4990501;28;20768;-70
2023/03/24 12:35:43;;;;;;;0.40;0.37;;;15.60;91.10;;;;;;4990533;28;20629;-70
2023/03/24 12:38:38;;;;;;;0.47;0.47;;;15.50;90.80;;;;;;4981428;28;21197;-71
2023/03/24 12:41:20;;;;;;;0.80;0.40;;;15.60;91.40;;;;;;4990643;28;20659;-71
2023/03/24 12:43:57;;;;;;;1.17;0.50;;;15.50;90.80;;;;;;4991374;28;21190;-70
2023/03/24 12:46:36;;;;;;;0.50;0.37;;;15.40;90.80;;;;;;4990184;28;20672;-70
2023/03/24 12:49:31;;;;;;;0.83;0.40;;;15.40;91.50;;;;;;4989929;28;20621;-70
2023/03/24 12:52:15;;;;;;;0.47;0.40;;;15.40;91.50;;;;;;4990235;28;20660;-70
2023/03/24 12:54:49;;;;;;;0.77;0.40;;;15.30;91.40;;;;;;4988810;28;20631;-70
2023/03/24 12:57:23;;;;;;;0.40;0.30;;;15.20;90.90;;;;;;4987179;28;20668;-70
2023/03/24 12:59:56;;;;;;;0.53;0.53;;;15.20;91.50;;;;;;4988705;28;20632;-70
2023/03/24 13:02:27;;;;;;;0.50;0.30;;;15.20;91.90;;;;;;4989711;28;20677;-70
2023/03/24 13:05:03;;;;;;;0.50;0.50;;;15.10;91.30;;;;;;4990229;28;20664;-70
2023/03/24 13:07:32;;;;;;;0.50;0.40;;;15.00;91.40;;;;;;4990556;28;20632;-70
2023/03/24 13:10:05;;;;;;;0.43;0.43;;;15.10;92.00;;;;;;4988990;28;20632;-70
2023/03/24 13:12:40;;;;;;;3.43;0.73;;;15.20;91.90;;;;;;4989362;28;20665;-70
2023/03/24 13:15:16;;;;;;;0.30;0.30;;;15.20;91.50;;;;;;4991022;28;20628;-70
2023/03/24 13:17:48;;;;;;;1.17;0.40;;;15.20;91.90;;;;;;4990669;28;20628;-70
2023/03/24 13:20:24;;;;;;;0.30;0.30;;;15.00;91.90;;;;;;4989273;28;20629;-70
2023/03/24 13:22:51;;;;;;;0.50;0.37;;;14.80;91.80;;;;;;4990031;28;21432;-70
2023/03/24 13:25:30;;;;;;;1.57;0.30;;;14.70;92.10;;;;;;4990488;28;20675;-70
2023/03/24 13:28:04;;;;;;;0.40;0.30;;;14.70;91.90;;;;;;4990835;28;20617;-69
2023/03/24 13:30:34;;;;;;;0.70;0.50;;;14.50;91.70;;;;;;4990510;28;20644;-70
2023/03/24 13:33:08;;;;;;;0.40;0.30;;;14.50;92.10;;;;;;4988643;28;20668;-70
2023/03/24 13:36:04;;;;;;;1.37;0.67;;;14.40;91.80;;;;;;4990138;28;21068;-70
2023/03/24 13:38:38;;;;;;;0.70;0.40;;;14.40;92.60;;;;;;4989672;28;20635;-69
2023/03/24 13:41:10;;;;;;;1.13;0.70;;;14.30;92.40;;;;;;4989503;28;20775;-69
2023/03/24 13:43:48;;;;;;;3.37;0.70;;;14.20;92.40;;;;;;4990407;28;20640;-70
2023/03/24 13:46:15;;;;;;;1.20;0.63;;;14.20;92.60;;;;;;4990237;28;20676;-70
2023/03/24 13:48:44;;;;;;;0.90;0.60;;;14.20;93.20;;;;;;4989180;28;20728;-70
2023/03/24 13:51:17;;;;;;;1.03;0.67;;;14.20;93.20;;;;;;4990036;28;20657;-70
2023/03/24 13:53:49;;;;;;;0.70;0.40;;;14.20;93.10;;;;;;4989840;28;20626;-69
2023/03/24 13:56:24;;;;;;;1.17;0.57;;;14.30;93.20;;;;;;4989332;28;21216;-70
2023/03/24 13:59:09;;;;;;;0.90;0.40;;;14.30;93.40;;;;;;4989090;28;20623;-70
2023/03/24 14:01:38;;;;;;;0.50;0.43;;;14.20;93.10;;;;;;4989375;28;20665;-70
2023/03/24 14:04:26;;;;;;;0.97;0.40;;;14.30;93.10;;;;;;4989651;28;20621;-69
2023/03/24 14:06:55;;;;;;;0.87;0.50;;;14.30;93.10;;;;;;4970494;28;20748;-70
2023/03/24 14:09:24;;;;;;;0.77;0.33;;;14.30;93.10;;;;;;4969572;28;20622;-70
2023/03/24 14:12:17;;;;;;;0.50;0.50;;;14.20;93.10;;;;;;4988670;28;20759;-70
2023/03/24 14:15:19;;;;;;;0.40;0.30;;;14.20;93.50;;;;;;4990024;28;20641;-70
2023/03/24 14:17:48;;;;;;;0.30;0.20;;;14.20;93.40;;;;;;4989603;28;20625;-70
2023/03/24 14:20:34;;;;;;;0.63;0.33;;;14.20;93.20;;;;;;4987880;28;20628;-69
2023/03/24 14:23:02;;;;;;;0.80;0.57;;;14.10;93.40;;;;;;4989429;28;20704;-69
2023/03/24 14:25:30;;;;;;;0.50;0.40;;;14.00;92.90;;;;;;4988606;28;20810;-71
2023/03/24 14:28:19;;;;;;;0.30;0.30;;;14.00;93.20;;;;;;4989720;28;20633;-70
2023/03/24 14:31:08;;;;;;;0.50;0.30;;;14.10;93.40;;;;;;4988847;28;20661;-70
2023/03/24 14:33:36;;;;;;;0.30;0.20;;;14.20;93.10;;;;;;4989291;28;20624;-70
2023/03/24 14:36:05;;;;;;;0.57;0.57;;;14.20;93.20;;;;;;4988674;28;21665;-69
2023/03/24 14:38:36;;;;;;;0.40;0.40;;;14.30;92.90;;;;;;4988030;28;20625;-70
2023/03/24 14:41:08;;;;;;;0.90;0.50;;;14.30;92.80;;;;;;4988821;28;20768;-70
2023/03/24 14:43:55;;;;;;;0.30;0.20;;;14.30;92.80;;;;;;4989286;28;20636;-70
2023/03/24 14:46:46;;;;;;;0.30;0.30;;;14.70;93.80;;;;;;4988650;28;20680;-70
2023/03/24 14:49:22;;;;;;;0.60;0.40;;;14.50;92.70;;;;;;4987968;28;21357;-70
2023/03/24 14:51:56;;;;;;;0.60;0.27;;;14.40;92.50;;;;;;4988829;28;20738;-70
2023/03/24 14:54:29;;;;;;;0.47;0.43;;;14.30;92.50;;;;;;4989073;28;20720;-70
2023/03/24 14:56:58;;;;;;;0.50;0.30;;;14.40;93.00;;;;;;4988904;28;20653;-70
2023/03/24 14:59:39;;;;;;;0.50;0.50;;;14.40;92.90;;;;;;4987896;28;20624;-70
2023/03/24 15:02:18;;;;;;;0.40;0.30;;;14.30;93.10;;;;;;4988214;28;20684;-70
2023/03/24 15:05:20;;;;;;;0.40;0.40;;;14.10;93.30;;;;;;4988463;28;20636;-70
2023/03/24 15:07:59;;;;;;;0.50;0.33;;;13.90;94.70;;;;;;4988959;28;20625;-69
2023/03/24 15:10:27;;;;;;;1.13;0.30;;;13.50;96.50;;;;;;4987459;28;20719;-69
2023/03/24 15:12:54;;;;;;;0.40;0.30;;;13.30;97.50;;;;;;4988326;28;21209;-69
2023/03/24 15:15:23;;;;;;;0.30;0.30;;;13.00;98.60;;;;;;4988160;28;21460;-70
2023/03/24 15:17:52;;;;;;;1.27;0.47;;;12.90;99.50;;;;;;4988944;28;21047;-70
2023/03/24 15:20:24;;;;;;;0.30;0.20;;;12.80;99.90;;;;;;4986344;28;21234;-70
2023/03/24 15:22:53;;;;;;;0.80;0.70;;;12.80;99.90;;;;;;4988699;28;20624;-70
2023/03/24 15:25:25;;;;;;;0.30;0.20;;;12.50;99.90;;;;;;4988155;28;20621;-70
2023/03/24 15:27:52;;;;;;;0.40;0.30;;;12.40;99.90;;;;;;4987687;28;21371;-69
2023/03/24 15:30:19;;;;;;;0.30;0.17;;;12.20;99.90;;;;;;4986286;28;20684;-71
2023/03/24 15:32:48;;;;;;;0.60;0.40;;;12.00;99.90;;;;;;4988413;28;20617;-70
2023/03/24 15:35:19;;;;;;;0.43;0.40;;;11.90;99.90;;;;;;4988053;28;20633;-70
2023/03/24 15:37:51;;;;;;;0.30;0.30;;;11.80;99.90;;;;;;4988273;28;20672;-70
2023/03/24 15:40:40;;;;;;;0.40;0.20;;;11.70;99.90;;;;;;4986189;28;20625;-70
2023/03/24 15:43:18;;;;;;;0.73;0.70;;;11.80;99.90;;;;;;4988288;28;20627;-70
2023/03/24 15:45:49;;;;;;;0.53;0.50;;;11.70;99.90;;;;;;4988328;28;20680;-70
2023/03/24 15:48:19;;;;;;;0.60;0.33;;;11.60;99.90;;;;;;4987429;28;21361;-70
2023/03/24 15:50:58;;;;;;;0.70;0.60;;;11.50;99.90;;;;;;4987157;28;20756;-70
2023/03/24 15:53:27;;;;;;;0.43;0.40;;;11.30;99.90;;;;;;4988259;28;20628;-70
2023/03/24 15:56:17;;;;;;;0.30;0.20;;;11.20;99.90;;;;;;4986962;28;20696;-70
2023/03/24 15:58:50;;;;;;;0.33;0.33;;;11.20;99.90;;;;;;4986570;28;20621;-70
2023/03/24 16:01:20;;;;;;;0.70;0.50;;;11.10;99.90;;;;;;4987003;28;20764;-70
2023/03/24 16:03:48;;;;;;;0.30;0.20;;;11.10;99.90;;;;;;4988012;28;20623;-70